sensor_id;sensor_type;location;lat;lon;timestamp;temperature;humidity
16408;DHT22;8313;49.894;8.084;2023-04-03T00:00:29;6.00;99.90
16408;DHT22;8313;49.894;8.084;2023-04-03T00:02:55;6.00;99.90
16408;DHT22;8313;49.894;8.084;2023-04-03T00:05:20;6.00;99.90
16408;DHT22;8313;49.894;8.084;2023-04-03T00:07:46;6.10;99.90
16408;DHT22;8313;49.894;8.084;2023-04-03T00:10:12;6.10;99.90
16408;DHT22;8313;49.894;8.084;2023-04-03T00:12:39;6.10;99.90
16408;DHT22;8313;49.894;8.084;2023-04-03T00:15:05;6.10;99.90
16408;DHT22;8313;49.894;8.084;2023-04-03T00:17:31;6.10;99.90
16408;DHT22;8313;49.894;8.084;2023-04-03T00:19:56;6.10;99.90
16408;DHT22;8313;49.894;8.084;2023-04-03T00:22:22;6.00;99.90
16408;DHT22;8313;49.894;8.084;2023-04-03T00:24:48;6.00;99.90
16408;DHT22;8313;49.894;8.084;2023-04-03T00:27:13;5.90;99.90
16408;DHT22;8313;49.894;8.084;2023-04-03T00:29:41;5.90;99.90
16408;DHT22;8313;49.894;8.084;2023-04-03T00:32:09;5.90;99.90
16408;DHT22;8313;49.894;8.084;2023-04-03T00:34:35;5.90;99.90
16408;DHT22;8313;49.894;8.084;2023-04-03T00:37:01;5.90;99.90
16408;DHT22;8313;49.894;8.084;2023-04-03T00:39:26;5.90;99.90
16408;DHT22;8313;49.894;8.084;2023-04-03T00:41:52;5.80;99.90
16408;DHT22;8313;49.894;8.084;2023-04-03T00:47:00;5.80;99.90
16408;DHT22;8313;49.894;8.084;2023-04-03T00:49:26;5.80;99.90
16408;DHT22;8313;49.894;8.084;2023-04-03T00:51:52;5.80;99.90
16408;DHT22;8313;49.894;8.084;2023-04-03T00:54:18;5.80;99.90
16408;DHT22;8313;49.894;8.084;2023-04-03T00:56:45;5.70;99.90
16408;DHT22;8313;49.894;8.084;2023-04-03T00:59:14;5.70;99.90
16408;DHT22;8313;49.894;8.084;2023-04-03T01:01:42;5.80;99.90
16408;DHT22;8313;49.894;8.084;2023-04-03T01:06:59;5.80;99.90
16408;DHT22;8313;49.894;8.084;2023-04-03T01:09:26;5.90;99.90
16408;DHT22;8313;49.894;8.084;2023-04-03T01:11:54;5.90;99.90
16408;DHT22;8313;49.894;8.084;2023-04-03T01:14:19;5.90;99.90
16408;DHT22;8313;49.894;8.084;2023-04-03T01:16:53;6.00;99.90
16408;DHT22;8313;49.894;8.084;2023-04-03T01:19:19;6.00;99.90
16408;DHT22;8313;49.894;8.084;2023-04-03T01:22:15;6.00;99.90
16408;DHT22;8313;49.894;8.084;2023-04-03T01:24:45;6.00;99.90
16408;DHT22;8313;49.894;8.084;2023-04-03T01:27:12;6.00;99.90
16408;DHT22;8313;49.894;8.084;2023-04-03T01:29:39;6.00;99.90
16408;DHT22;8313;49.894;8.084;2023-04-03T01:32:05;6.00;99.90
16408;DHT22;8313;49.894;8.084;2023-04-03T01:34:31;6.10;99.90
16408;DHT22;8313;49.894;8.084;2023-04-03T01:36:58;6.00;99.90
16408;DHT22;8313;49.894;8.084;2023-04-03T01:39:24;6.00;99.90
16408;DHT22;8313;49.894;8.084;2023-04-03T01:41:50;6.00;99.90
16408;DHT22;8313;49.894;8.084;2023-04-03T01:44:22;6.00;99.90
16408;DHT22;8313;49.894;8.084;2023-04-03T01:46:48;6.00;99.90
16408;DHT22;8313;49.894;8.084;2023-04-03T01:49:14;6.00;99.90
16408;DHT22;8313;49.894;8.084;2023-04-03T01:51:39;6.00;99.90
16408;DHT22;8313;49.894;8.084;2023-04-03T01:54:05;6.00;99.90
16408;DHT22;8313;49.894;8.084;2023-04-03T01:56:31;5.90;99.90
16408;DHT22;8313;49.894;8.084;2023-04-03T01:58:56;5.90;99.90
16408;DHT22;8313;49.894;8.084;2023-04-03T02:01:22;5.90;99.90
16408;DHT22;8313;49.894;8.084;2023-04-03T02:03:48;6.00;99.90
16408;DHT22;8313;49.894;8.084;2023-04-03T02:06:14;6.00;99.90
16408;DHT22;8313;49.894;8.084;2023-04-03T02:08:40;6.00;99.90
16408;DHT22;8313;49.894;8.084;2023-04-03T02:11:07;6.00;99.90
16408;DHT22;8313;49.894;8.084;2023-04-03T02:13:32;6.00;99.90
16408;DHT22;8313;49.894;8.084;2023-04-03T02:15:59;6.00;99.90
16408;DHT22;8313;49.894;8.084;2023-04-03T02:18:25;6.00;99.90
16408;DHT22;8313;49.894;8.084;2023-04-03T02:20:50;6.00;99.90
16408;DHT22;8313;49.894;8.084;2023-04-03T02:23:16;6.00;99.90
16408;DHT22;8313;49.894;8.084;2023-04-03T02:25:41;6.00;99.90
16408;DHT22;8313;49.894;8.084;2023-04-03T02:28:07;6.00;99.90
16408;DHT22;8313;49.894;8.084;2023-04-03T02:30:33;6.00;99.90
16408;DHT22;8313;49.894;8.084;2023-04-03T02:32:59;6.00;99.90
16408;DHT22;8313;49.894;8.084;2023-04-03T02:35:25;6.00;99.90
16408;DHT22;8313;49.894;8.084;2023-04-03T02:37:52;6.00;99.90
16408;DHT22;8313;49.894;8.084;2023-04-03T02:40:18;6.00;99.90
16408;DHT22;8313;49.894;8.084;2023-04-03T02:42:44;6.00;99.90
16408;DHT22;8313;49.894;8.084;2023-04-03T02:45:10;6.00;99.90
16408;DHT22;8313;49.894;8.084;2023-04-03T02:47:36;6.00;99.90
16408;DHT22;8313;49.894;8.084;2023-04-03T02:50:01;6.00;99.90
16408;DHT22;8313;49.894;8.084;2023-04-03T02:52:27;5.90;99.90
16408;DHT22;8313;49.894;8.084;2023-04-03T02:54:56;5.90;99.90
16408;DHT22;8313;49.894;8.084;2023-04-03T02:57:21;5.90;99.90
16408;DHT22;8313;49.894;8.084;2023-04-03T02:59:48;5.90;99.90
16408;DHT22;8313;49.894;8.084;2023-04-03T03:02:13;5.90;99.90
16408;DHT22;8313;49.894;8.084;2023-04-03T03:04:39;5.90;99.90
16408;DHT22;8313;49.894;8.084;2023-04-03T03:07:05;6.00;99.90
16408;DHT22;8313;49.894;8.084;2023-04-03T03:09:31;6.00;99.90
16408;DHT22;8313;49.894;8.084;2023-04-03T03:11:57;6.00;99.90
16408;DHT22;8313;49.894;8.084;2023-04-03T03:14:23;6.00;99.90
16408;DHT22;8313;49.894;8.084;2023-04-03T03:16:49;6.00;99.90
16408;DHT22;8313;49.894;8.084;2023-04-03T03:19:15;6.10;99.90
16408;DHT22;8313;49.894;8.084;2023-04-03T03:21:40;6.10;99.90
16408;DHT22;8313;49.894;8.084;2023-04-03T03:24:06;6.10;99.90
16408;DHT22;8313;49.894;8.084;2023-04-03T03:26:32;6.00;99.90
16408;DHT22;8313;49.894;8.084;2023-04-03T03:28:58;6.00;99.90
16408;DHT22;8313;49.894;8.084;2023-04-03T03:31:23;6.00;99.90
16408;DHT22;8313;49.894;8.084;2023-04-03T03:33:49;6.00;99.90
16408;DHT22;8313;49.894;8.084;2023-04-03T03:36:15;6.00;99.90
16408;DHT22;8313;49.894;8.084;2023-04-03T03:38:41;6.00;99.90
16408;DHT22;8313;49.894;8.084;2023-04-03T03:41:08;6.00;99.90
16408;DHT22;8313;49.894;8.084;2023-04-03T03:43:34;5.90;99.90
16408;DHT22;8313;49.894;8.084;2023-04-03T03:46:02;5.90;99.90
16408;DHT22;8313;49.894;8.084;2023-04-03T03:48:28;5.90;99.90
16408;DHT22;8313;49.894;8.084;2023-04-03T03:50:53;5.90;99.90
16408;DHT22;8313;49.894;8.084;2023-04-03T03:53:23;5.90;99.90
16408;DHT22;8313;49.894;8.084;2023-04-03T03:55:52;5.90;99.90
16408;DHT22;8313;49.894;8.084;2023-04-03T03:58:20;5.90;99.90
16408;DHT22;8313;49.894;8.084;2023-04-03T04:00:46;5.80;99.90
16408;DHT22;8313;49.894;8.084;2023-04-03T04:03:12;5.80;99.90
16408;DHT22;8313;49.894;8.084;2023-04-03T04:05:39;5.70;99.90
16408;DHT22;8313;49.894;8.084;2023-04-03T04:08:05;5.70;99.90
16408;DHT22;8313;49.894;8.084;2023-04-03T04:10:30;5.70;99.90
16408;DHT22;8313;49.894;8.084;2023-04-03T04:12:57;5.70;99.90
16408;DHT22;8313;49.894;8.084;2023-04-03T04:15:24;5.70;99.90
16408;DHT22;8313;49.894;8.084;2023-04-03T04:17:52;5.70;99.90
16408;DHT22;8313;49.894;8.084;2023-04-03T04:20:18;5.60;99.90
16408;DHT22;8313;49.894;8.084;2023-04-03T04:22:46;5.50;99.90
16408;DHT22;8313;49.894;8.084;2023-04-03T04:25:12;5.50;99.90
16408;DHT22;8313;49.894;8.084;2023-04-03T04:27:39;5.50;99.90
16408;DHT22;8313;49.894;8.084;2023-04-03T04:30:06;5.50;99.90
16408;DHT22;8313;49.894;8.084;2023-04-03T04:32:32;5.50;99.90
16408;DHT22;8313;49.894;8.084;2023-04-03T04:34:58;5.50;99.90
16408;DHT22;8313;49.894;8.084;2023-04-03T04:37:25;5.50;99.90
16408;DHT22;8313;49.894;8.084;2023-04-03T04:39:52;5.30;99.90
16408;DHT22;8313;49.894;8.084;2023-04-03T04:42:17;5.40;99.90
16408;DHT22;8313;49.894;8.084;2023-04-03T04:44:44;5.40;99.90
16408;DHT22;8313;49.894;8.084;2023-04-03T04:47:12;5.30;99.90
16408;DHT22;8313;49.894;8.084;2023-04-03T04:49:37;5.30;99.90
16408;DHT22;8313;49.894;8.084;2023-04-03T04:52:03;5.30;99.90
16408;DHT22;8313;49.894;8.084;2023-04-03T04:54:31;5.20;99.90
16408;DHT22;8313;49.894;8.084;2023-04-03T04:56:57;5.20;99.90
16408;DHT22;8313;49.894;8.084;2023-04-03T04:59:23;5.20;99.90
16408;DHT22;8313;49.894;8.084;2023-04-03T05:01:50;5.20;99.90
16408;DHT22;8313;49.894;8.084;2023-04-03T05:04:17;5.10;99.90
16408;DHT22;8313;49.894;8.084;2023-04-03T05:06:46;5.10;99.90
16408;DHT22;8313;49.894;8.084;2023-04-03T05:09:16;5.10;99.90
16408;DHT22;8313;49.894;8.084;2023-04-03T05:11:43;5.10;99.90
16408;DHT22;8313;49.894;8.084;2023-04-03T05:14:10;5.10;99.90
16408;DHT22;8313;49.894;8.084;2023-04-03T05:16:36;5.10;99.90
16408;DHT22;8313;49.894;8.084;2023-04-03T05:19:02;5.10;99.90
16408;DHT22;8313;49.894;8.084;2023-04-03T05:21:28;5.00;99.90
16408;DHT22;8313;49.894;8.084;2023-04-03T05:23:59;5.00;99.90
16408;DHT22;8313;49.894;8.084;2023-04-03T05:26:30;4.90;99.90
16408;DHT22;8313;49.894;8.084;2023-04-03T05:28:56;4.90;99.90
16408;DHT22;8313;49.894;8.084;2023-04-03T05:31:21;4.80;99.90
16408;DHT22;8313;49.894;8.084;2023-04-03T05:33:48;4.90;99.90
16408;DHT22;8313;49.894;8.084;2023-04-03T05:36:17;4.80;99.90
16408;DHT22;8313;49.894;8.084;2023-04-03T05:38:46;4.80;99.90
16408;DHT22;8313;49.894;8.084;2023-04-03T05:41:12;4.70;99.90
16408;DHT22;8313;49.894;8.084;2023-04-03T05:43:38;4.70;99.90
16408;DHT22;8313;49.894;8.084;2023-04-03T05:46:13;4.70;99.90
16408;DHT22;8313;49.894;8.084;2023-04-03T05:48:42;4.70;99.90
16408;DHT22;8313;49.894;8.084;2023-04-03T05:51:21;4.80;99.90
16408;DHT22;8313;49.894;8.084;2023-04-03T05:53:54;4.80;99.90
16408;DHT22;8313;49.894;8.084;2023-04-03T05:56:21;4.80;99.90
16408;DHT22;8313;49.894;8.084;2023-04-03T05:58:47;4.70;99.90
16408;DHT22;8313;49.894;8.084;2023-04-03T06:01:13;4.80;99.90
16408;DHT22;8313;49.894;8.084;2023-04-03T06:03:39;4.80;99.90
16408;DHT22;8313;49.894;8.084;2023-04-03T06:06:06;4.80;99.90
16408;DHT22;8313;49.894;8.084;2023-04-03T06:08:33;4.80;99.90
16408;DHT22;8313;49.894;8.084;2023-04-03T06:11:00;4.80;99.90
16408;DHT22;8313;49.894;8.084;2023-04-03T06:13:27;4.80;99.90
16408;DHT22;8313;49.894;8.084;2023-04-03T06:15:53;4.70;99.90
16408;DHT22;8313;49.894;8.084;2023-04-03T06:18:19;4.70;99.90
16408;DHT22;8313;49.894;8.084;2023-04-03T06:20:46;4.70;99.90
16408;DHT22;8313;49.894;8.084;2023-04-03T06:23:11;4.70;99.90
16408;DHT22;8313;49.894;8.084;2023-04-03T06:25:37;4.70;99.90
16408;DHT22;8313;49.894;8.084;2023-04-03T06:28:03;4.60;99.90
16408;DHT22;8313;49.894;8.084;2023-04-03T06:30:28;4.60;99.90
16408;DHT22;8313;49.894;8.084;2023-04-03T06:32:54;4.70;99.90
16408;DHT22;8313;49.894;8.084;2023-04-03T06:35:21;4.70;99.90
16408;DHT22;8313;49.894;8.084;2023-04-03T06:37:49;4.70;99.90
16408;DHT22;8313;49.894;8.084;2023-04-03T06:40:23;4.70;99.90
16408;DHT22;8313;49.894;8.084;2023-04-03T06:42:49;4.70;99.90
16408;DHT22;8313;49.894;8.084;2023-04-03T06:45:17;4.70;99.90
16408;DHT22;8313;49.894;8.084;2023-04-03T06:47:43;4.70;99.90
16408;DHT22;8313;49.894;8.084;2023-04-03T06:50:10;4.70;99.90
16408;DHT22;8313;49.894;8.084;2023-04-03T06:52:37;4.70;99.90
16408;DHT22;8313;49.894;8.084;2023-04-03T06:55:03;4.60;99.90
16408;DHT22;8313;49.894;8.084;2023-04-03T06:57:29;4.70;99.90
16408;DHT22;8313;49.894;8.084;2023-04-03T06:59:55;4.70;99.90
16408;DHT22;8313;49.894;8.084;2023-04-03T07:02:21;4.70;99.90
16408;DHT22;8313;49.894;8.084;2023-04-03T07:04:47;4.70;99.90
16408;DHT22;8313;49.894;8.084;2023-04-03T07:07:13;4.70;99.90
16408;DHT22;8313;49.894;8.084;2023-04-03T07:09:38;4.70;99.90
16408;DHT22;8313;49.894;8.084;2023-04-03T07:12:05;4.70;99.90
16408;DHT22;8313;49.894;8.084;2023-04-03T07:14:30;4.70;99.90
16408;DHT22;8313;49.894;8.084;2023-04-03T07:16:56;4.80;99.90
16408;DHT22;8313;49.894;8.084;2023-04-03T07:19:22;4.90;99.90
16408;DHT22;8313;49.894;8.084;2023-04-03T07:21:49;4.90;99.90
16408;DHT22;8313;49.894;8.084;2023-04-03T07:24:15;5.00;99.90
16408;DHT22;8313;49.894;8.084;2023-04-03T07:26:41;5.00;99.90
16408;DHT22;8313;49.894;8.084;2023-04-03T07:29:07;5.00;99.90
16408;DHT22;8313;49.894;8.084;2023-04-03T07:31:32;5.20;99.90
16408;DHT22;8313;49.894;8.084;2023-04-03T07:33:59;5.20;99.90
16408;DHT22;8313;49.894;8.084;2023-04-03T07:36:25;5.20;99.90
16408;DHT22;8313;49.894;8.084;2023-04-03T07:38:50;5.30;99.90
16408;DHT22;8313;49.894;8.084;2023-04-03T07:41:18;5.30;99.90
16408;DHT22;8313;49.894;8.084;2023-04-03T07:43:45;5.40;99.90
16408;DHT22;8313;49.894;8.084;2023-04-03T07:46:12;5.40;99.90
16408;DHT22;8313;49.894;8.084;2023-04-03T07:48:38;5.60;99.90
16408;DHT22;8313;49.894;8.084;2023-04-03T07:51:04;5.50;99.90
16408;DHT22;8313;49.894;8.084;2023-04-03T07:53:31;5.40;99.90
16408;DHT22;8313;49.894;8.084;2023-04-03T07:55:58;5.40;99.90
16408;DHT22;8313;49.894;8.084;2023-04-03T07:58:24;5.40;99.90
16408;DHT22;8313;49.894;8.084;2023-04-03T08:00:51;5.50;99.90
16408;DHT22;8313;49.894;8.084;2023-04-03T08:03:16;5.50;99.90
16408;DHT22;8313;49.894;8.084;2023-04-03T08:05:47;5.50;99.90
16408;DHT22;8313;49.894;8.084;2023-04-03T08:08:15;5.60;99.90
16408;DHT22;8313;49.894;8.084;2023-04-03T08:10:41;5.70;99.90
16408;DHT22;8313;49.894;8.084;2023-04-03T08:13:08;5.80;99.90
16408;DHT22;8313;49.894;8.084;2023-04-03T08:15:34;5.80;99.90
16408;DHT22;8313;49.894;8.084;2023-04-03T08:18:00;5.70;99.90
16408;DHT22;8313;49.894;8.084;2023-04-03T08:20:27;5.80;99.90
16408;DHT22;8313;49.894;8.084;2023-04-03T08:22:53;6.00;99.90
16408;DHT22;8313;49.894;8.084;2023-04-03T08:25:18;6.00;99.90
16408;DHT22;8313;49.894;8.084;2023-04-03T08:27:44;5.90;99.90
16408;DHT22;8313;49.894;8.084;2023-04-03T08:30:10;5.80;99.90
16408;DHT22;8313;49.894;8.084;2023-04-03T08:32:37;5.70;99.90
16408;DHT22;8313;49.894;8.084;2023-04-03T08:35:04;5.80;99.90
16408;DHT22;8313;49.894;8.084;2023-04-03T08:37:30;5.90;99.90
16408;DHT22;8313;49.894;8.084;2023-04-03T08:39:56;5.90;99.90
16408;DHT22;8313;49.894;8.084;2023-04-03T08:48:21;6.00;99.90
16408;DHT22;8313;49.894;8.084;2023-04-03T08:50:54;6.00;99.90
16408;DHT22;8313;49.894;8.084;2023-04-03T08:53:25;6.00;99.90
16408;DHT22;8313;49.894;8.084;2023-04-03T08:55:54;6.10;99.90
16408;DHT22;8313;49.894;8.084;2023-04-03T08:58:33;6.10;99.90
16408;DHT22;8313;49.894;8.084;2023-04-03T09:01:05;6.10;99.90
16408;DHT22;8313;49.894;8.084;2023-04-03T09:03:40;6.20;99.90
16408;DHT22;8313;49.894;8.084;2023-04-03T09:06:12;6.30;99.90
16408;DHT22;8313;49.894;8.084;2023-04-03T09:16:54;6.30;99.90
16408;DHT22;8313;49.894;8.084;2023-04-03T09:19:22;6.40;99.90
16408;DHT22;8313;49.894;8.084;2023-04-03T09:21:50;6.30;99.90
16408;DHT22;8313;49.894;8.084;2023-04-03T09:24:16;6.40;99.90
16408;DHT22;8313;49.894;8.084;2023-04-03T09:26:49;6.60;99.90
16408;DHT22;8313;49.894;8.084;2023-04-03T09:29:22;6.60;99.90
16408;DHT22;8313;49.894;8.084;2023-04-03T09:35:02;6.80;99.90
16408;DHT22;8313;49.894;8.084;2023-04-03T09:40:03;6.50;99.90
16408;DHT22;8313;49.894;8.084;2023-04-03T09:42:30;6.60;99.90
16408;DHT22;8313;49.894;8.084;2023-04-03T09:45:04;6.60;99.90
16408;DHT22;8313;49.894;8.084;2023-04-03T09:47:32;6.60;99.90
16408;DHT22;8313;49.894;8.084;2023-04-03T09:52:47;6.80;99.90
16408;DHT22;8313;49.894;8.084;2023-04-03T09:55:18;6.80;99.90
16408;DHT22;8313;49.894;8.084;2023-04-03T09:57:48;6.90;99.90
16408;DHT22;8313;49.894;8.084;2023-04-03T10:00:38;6.70;99.90
16408;DHT22;8313;49.894;8.084;2023-04-03T10:03:25;6.70;99.90
16408;DHT22;8313;49.894;8.084;2023-04-03T10:05:51;6.80;99.90
16408;DHT22;8313;49.894;8.084;2023-04-03T10:08:23;6.80;99.90
16408;DHT22;8313;49.894;8.084;2023-04-03T10:11:12;6.80;99.90
16408;DHT22;8313;49.894;8.084;2023-04-03T10:14:15;6.90;99.90
16408;DHT22;8313;49.894;8.084;2023-04-03T10:16:47;6.70;99.90
16408;DHT22;8313;49.894;8.084;2023-04-03T10:24:54;7.00;99.90
16408;DHT22;8313;49.894;8.084;2023-04-03T10:27:51;6.90;99.90
16408;DHT22;8313;49.894;8.084;2023-04-03T10:39:02;6.90;99.90
16408;DHT22;8313;49.894;8.084;2023-04-03T10:41:48;6.90;99.90
16408;DHT22;8313;49.894;8.084;2023-04-03T10:44:30;6.80;99.90
16408;DHT22;8313;49.894;8.084;2023-04-03T10:52:48;6.80;99.90
16408;DHT22;8313;49.894;8.084;2023-04-03T10:55:37;6.80;99.90
16408;DHT22;8313;49.894;8.084;2023-04-03T10:58:32;6.80;99.90
16408;DHT22;8313;49.894;8.084;2023-04-03T11:01:06;6.90;99.90
16408;DHT22;8313;49.894;8.084;2023-04-03T11:03:36;6.90;99.90
16408;DHT22;8313;49.894;8.084;2023-04-03T11:06:09;6.90;99.90
16408;DHT22;8313;49.894;8.084;2023-04-03T11:11:24;7.10;99.90
16408;DHT22;8313;49.894;8.084;2023-04-03T11:14:11;7.10;99.90
16408;DHT22;8313;49.894;8.084;2023-04-03T11:16:45;7.10;99.90
16408;DHT22;8313;49.894;8.084;2023-04-03T11:19:14;7.10;99.90
16408;DHT22;8313;49.894;8.084;2023-04-03T11:21:54;7.20;99.90
16408;DHT22;8313;49.894;8.084;2023-04-03T11:24:25;7.20;99.90
16408;DHT22;8313;49.894;8.084;2023-04-03T11:26:54;7.20;99.90
16408;DHT22;8313;49.894;8.084;2023-04-03T11:29:23;7.30;99.90
16408;DHT22;8313;49.894;8.084;2023-04-03T11:32:24;7.20;99.90
16408;DHT22;8313;49.894;8.084;2023-04-03T11:34:54;7.20;99.90
16408;DHT22;8313;49.894;8.084;2023-04-03T11:37:32;7.30;99.90
16408;DHT22;8313;49.894;8.084;2023-04-03T11:40:06;7.30;99.90
16408;DHT22;8313;49.894;8.084;2023-04-03T11:42:38;7.20;99.90
16408;DHT22;8313;49.894;8.084;2023-04-03T11:47:54;7.30;99.90
16408;DHT22;8313;49.894;8.084;2023-04-03T11:53:39;7.40;99.90
16408;DHT22;8313;49.894;8.084;2023-04-03T12:01:51;7.60;99.90
16408;DHT22;8313;49.894;8.084;2023-04-03T12:04:19;7.50;99.90
16408;DHT22;8313;49.894;8.084;2023-04-03T12:14:51;7.50;99.90
16408;DHT22;8313;49.894;8.084;2023-04-03T12:17:26;7.50;99.90
16408;DHT22;8313;49.894;8.084;2023-04-03T12:19:52;7.50;99.90
16408;DHT22;8313;49.894;8.084;2023-04-03T12:22:20;7.60;99.90
16408;DHT22;8313;49.894;8.084;2023-04-03T12:24:52;7.70;99.90
16408;DHT22;8313;49.894;8.084;2023-04-03T12:27:40;7.60;99.90
16408;DHT22;8313;49.894;8.084;2023-04-03T12:30:15;7.60;99.90
16408;DHT22;8313;49.894;8.084;2023-04-03T12:35:29;7.50;99.90
16408;DHT22;8313;49.894;8.084;2023-04-03T12:38:30;7.50;99.90
16408;DHT22;8313;49.894;8.084;2023-04-03T12:44:23;7.70;99.90
16408;DHT22;8313;49.894;8.084;2023-04-03T12:46:52;7.70;99.90
16408;DHT22;8313;49.894;8.084;2023-04-03T12:49:39;7.70;99.90
16408;DHT22;8313;49.894;8.084;2023-04-03T12:52:44;7.70;99.90
16408;DHT22;8313;49.894;8.084;2023-04-03T12:55:20;7.80;99.90
16408;DHT22;8313;49.894;8.084;2023-04-03T12:57:46;7.90;99.90
16408;DHT22;8313;49.894;8.084;2023-04-03T13:00:37;7.90;99.90
16408;DHT22;8313;49.894;8.084;2023-04-03T13:03:06;7.90;99.90
16408;DHT22;8313;49.894;8.084;2023-04-03T13:05:40;7.90;99.90
16408;DHT22;8313;49.894;8.084;2023-04-03T13:08:12;7.80;99.90
16408;DHT22;8313;49.894;8.084;2023-04-03T13:10:51;7.90;99.90
16408;DHT22;8313;49.894;8.084;2023-04-03T13:13:18;7.90;99.90
16408;DHT22;8313;49.894;8.084;2023-04-03T13:15:47;7.90;99.90
16408;DHT22;8313;49.894;8.084;2023-04-03T13:18:29;7.90;99.90
16408;DHT22;8313;49.894;8.084;2023-04-03T13:21:05;7.90;99.90
16408;DHT22;8313;49.894;8.084;2023-04-03T13:23:32;8.10;99.90
16408;DHT22;8313;49.894;8.084;2023-04-03T13:26:00;8.20;99.90
16408;DHT22;8313;49.894;8.084;2023-04-03T13:28:29;8.10;99.90
16408;DHT22;8313;49.894;8.084;2023-04-03T13:33:51;7.90;99.90
16408;DHT22;8313;49.894;8.084;2023-04-03T13:36:20;7.90;99.90
16408;DHT22;8313;49.894;8.084;2023-04-03T13:38:59;8.00;99.90
16408;DHT22;8313;49.894;8.084;2023-04-03T13:41:35;7.90;99.90
16408;DHT22;8313;49.894;8.084;2023-04-03T13:49:36;7.80;99.50
16408;DHT22;8313;49.894;8.084;2023-04-03T13:52:38;7.90;99.90
16408;DHT22;8313;49.894;8.084;2023-04-03T13:55:24;8.10;99.90
16408;DHT22;8313;49.894;8.084;2023-04-03T13:57:58;8.10;99.50
16408;DHT22;8313;49.894;8.084;2023-04-03T14:03:07;8.00;99.90
16408;DHT22;8313;49.894;8.084;2023-04-03T14:05:36;8.10;99.80
16408;DHT22;8313;49.894;8.084;2023-04-03T14:08:02;8.10;99.70
16408;DHT22;8313;49.894;8.084;2023-04-03T14:10:29;8.10;99.10
16408;DHT22;8313;49.894;8.084;2023-04-03T14:12:55;8.20;99.90
16408;DHT22;8313;49.894;8.084;2023-04-03T14:15:24;8.10;99.50
16408;DHT22;8313;49.894;8.084;2023-04-03T14:17:52;8.00;98.90
16408;DHT22;8313;49.894;8.084;2023-04-03T14:20:20;8.00;98.60
16408;DHT22;8313;49.894;8.084;2023-04-03T14:22:47;8.10;99.50
16408;DHT22;8313;49.894;8.084;2023-04-03T14:25:14;8.10;99.20
16408;DHT22;8313;49.894;8.084;2023-04-03T14:27:44;8.10;99.20
16408;DHT22;8313;49.894;8.084;2023-04-03T14:30:22;8.00;99.00
16408;DHT22;8313;49.894;8.084;2023-04-03T14:32:48;8.00;98.50
16408;DHT22;8313;49.894;8.084;2023-04-03T14:35:15;7.90;98.20
16408;DHT22;8313;49.894;8.084;2023-04-03T14:37:41;8.00;98.60
16408;DHT22;8313;49.894;8.084;2023-04-03T14:40:11;8.00;98.40
16408;DHT22;8313;49.894;8.084;2023-04-03T14:42:37;8.00;97.80
16408;DHT22;8313;49.894;8.084;2023-04-03T14:45:06;8.00;98.30
16408;DHT22;8313;49.894;8.084;2023-04-03T14:47:32;7.90;98.20
16408;DHT22;8313;49.894;8.084;2023-04-03T14:50:03;8.00;98.20
16408;DHT22;8313;49.894;8.084;2023-04-03T14:52:32;8.10;98.30
16408;DHT22;8313;49.894;8.084;2023-04-03T14:55:00;8.10;98.30
16408;DHT22;8313;49.894;8.084;2023-04-03T14:57:28;8.10;98.20
16408;DHT22;8313;49.894;8.084;2023-04-03T14:59:54;8.10;98.20
16408;DHT22;8313;49.894;8.084;2023-04-03T15:02:34;8.00;98.50
16408;DHT22;8313;49.894;8.084;2023-04-03T15:05:02;8.10;98.80
16408;DHT22;8313;49.894;8.084;2023-04-03T15:07:31;8.10;98.20
16408;DHT22;8313;49.894;8.084;2023-04-03T15:12:45;8.10;98.50
16408;DHT22;8313;49.894;8.084;2023-04-03T15:15:11;8.00;98.20
16408;DHT22;8313;49.894;8.084;2023-04-03T15:17:37;8.00;97.80
16408;DHT22;8313;49.894;8.084;2023-04-03T15:20:03;8.00;97.80
16408;DHT22;8313;49.894;8.084;2023-04-03T15:22:31;8.00;98.10
16408;DHT22;8313;49.894;8.084;2023-04-03T15:24:57;8.10;98.00
16408;DHT22;8313;49.894;8.084;2023-04-03T15:27:22;8.00;98.30
16408;DHT22;8313;49.894;8.084;2023-04-03T15:29:48;8.10;98.10
16408;DHT22;8313;49.894;8.084;2023-04-03T15:32:14;8.20;97.90
16408;DHT22;8313;49.894;8.084;2023-04-03T15:34:40;8.10;97.90
16408;DHT22;8313;49.894;8.084;2023-04-03T15:37:06;8.00;97.80
16408;DHT22;8313;49.894;8.084;2023-04-03T15:39:32;8.00;97.70
16408;DHT22;8313;49.894;8.084;2023-04-03T15:41:58;7.90;97.50
16408;DHT22;8313;49.894;8.084;2023-04-03T15:44:32;8.00;97.50
16408;DHT22;8313;49.894;8.084;2023-04-03T15:46:59;7.90;97.40
16408;DHT22;8313;49.894;8.084;2023-04-03T15:49:25;7.80;97.10
16408;DHT22;8313;49.894;8.084;2023-04-03T15:51:52;7.90;97.40
16408;DHT22;8313;49.894;8.084;2023-04-03T15:54:18;7.90;97.50
16408;DHT22;8313;49.894;8.084;2023-04-03T15:56:43;7.90;97.40
16408;DHT22;8313;49.894;8.084;2023-04-03T15:59:09;8.00;97.50
16408;DHT22;8313;49.894;8.084;2023-04-03T16:01:36;8.10;97.90
16408;DHT22;8313;49.894;8.084;2023-04-03T16:04:02;8.00;97.40
16408;DHT22;8313;49.894;8.084;2023-04-03T16:06:27;7.90;97.60
16408;DHT22;8313;49.894;8.084;2023-04-03T16:08:56;7.80;97.60
16408;DHT22;8313;49.894;8.084;2023-04-03T16:11:25;7.80;97.20
16408;DHT22;8313;49.894;8.084;2023-04-03T16:13:51;7.90;97.30
16408;DHT22;8313;49.894;8.084;2023-04-03T16:16:17;8.00;97.40
16408;DHT22;8313;49.894;8.084;2023-04-03T16:18:43;8.00;97.70
16408;DHT22;8313;49.894;8.084;2023-04-03T16:21:09;8.00;97.50
16408;DHT22;8313;49.894;8.084;2023-04-03T16:23:35;8.00;97.80
16408;DHT22;8313;49.894;8.084;2023-04-03T16:26:01;8.10;98.00
16408;DHT22;8313;49.894;8.084;2023-04-03T16:28:26;8.10;97.90
16408;DHT22;8313;49.894;8.084;2023-04-03T16:30:52;8.00;97.40
16408;DHT22;8313;49.894;8.084;2023-04-03T16:33:18;8.00;98.00
16408;DHT22;8313;49.894;8.084;2023-04-03T16:35:47;7.90;97.20
16408;DHT22;8313;49.894;8.084;2023-04-03T16:38:14;7.80;96.70
16408;DHT22;8313;49.894;8.084;2023-04-03T16:40:40;7.80;97.00
16408;DHT22;8313;49.894;8.084;2023-04-03T16:43:06;7.80;97.20
16408;DHT22;8313;49.894;8.084;2023-04-03T16:45:32;7.70;96.80
16408;DHT22;8313;49.894;8.084;2023-04-03T16:47:57;7.70;97.30
16408;DHT22;8313;49.894;8.084;2023-04-03T16:50:23;7.70;97.70
16408;DHT22;8313;49.894;8.084;2023-04-03T16:52:49;7.80;97.20
16408;DHT22;8313;49.894;8.084;2023-04-03T16:55:14;7.70;97.30
16408;DHT22;8313;49.894;8.084;2023-04-03T16:57:40;7.80;97.60
16408;DHT22;8313;49.894;8.084;2023-04-03T17:00:07;7.70;97.30
16408;DHT22;8313;49.894;8.084;2023-04-03T17:02:33;7.70;97.50
16408;DHT22;8313;49.894;8.084;2023-04-03T17:04:59;7.60;97.80
16408;DHT22;8313;49.894;8.084;2023-04-03T17:07:25;7.60;97.90
16408;DHT22;8313;49.894;8.084;2023-04-03T17:09:51;7.60;97.90
16408;DHT22;8313;49.894;8.084;2023-04-03T17:12:19;7.60;97.40
16408;DHT22;8313;49.894;8.084;2023-04-03T17:14:45;7.50;97.20
16408;DHT22;8313;49.894;8.084;2023-04-03T17:17:13;7.50;97.60
16408;DHT22;8313;49.894;8.084;2023-04-03T17:19:39;7.60;97.90
16408;DHT22;8313;49.894;8.084;2023-04-03T17:22:07;7.60;98.00
16408;DHT22;8313;49.894;8.084;2023-04-03T17:24:34;7.50;98.10
16408;DHT22;8313;49.894;8.084;2023-04-03T17:27:00;7.50;98.00
16408;DHT22;8313;49.894;8.084;2023-04-03T17:29:25;7.40;97.60
16408;DHT22;8313;49.894;8.084;2023-04-03T17:31:51;7.40;97.90
16408;DHT22;8313;49.894;8.084;2023-04-03T17:34:17;7.30;97.50
16408;DHT22;8313;49.894;8.084;2023-04-03T17:36:43;7.30;97.60
16408;DHT22;8313;49.894;8.084;2023-04-03T17:39:09;7.20;97.50
16408;DHT22;8313;49.894;8.084;2023-04-03T17:41:34;7.30;98.20